Arapahoe, Wyoming
Current Conditions -  °F | °C
As of 5:53 AM on Monday 24 Nov 2014 (Local Time) from KRIW Reporting Station
Clear Clear  
Wind Chill: 14°   Ceiling: Unl
Heat Index: 29°   Visibility: 10mi
Dew Point: 14°   Wind: 26mph
Humidity: 54%   Direction: 300°WNW
Pressure: 29.89"   Gusts: 36mph
Location:  42.96°N, 108.49°W
Report Text: KRIW 241253Z AUTO 30023G31KT 10SM CLR M02/M10 A2989 RMK AO2 PK WND 30036/1212 SLP148 T10171100
Loading
Personal Weather Stations






























Interactive Weather Map New forecast layout! Learn more

10-Day Weather Forecast

Advertisements
Track Severe Weather on mobile